sensor_id;sensor_type;location;lat;lon;timestamp;pressure;altitude;pressure_sealevel;temperature;humidity
51178;BME280;37243;49.814;8.652;2022-11-27T00:01:30;101542.16;;;25.25;37.63
51178;BME280;37243;49.814;8.652;2022-11-27T00:03:59;101540.81;;;25.23;38.24
51178;BME280;37243;49.814;8.652;2022-11-27T00:06:29;101535.66;;;25.21;38.52
51178;BME280;37243;49.814;8.652;2022-11-27T00:09:02;101528.50;;;25.20;37.74
51178;BME280;37243;49.814;8.652;2022-11-27T00:11:31;101521.41;;;25.19;38.13
51178;BME280;37243;49.814;8.652;2022-11-27T00:14:00;101515.34;;;25.17;37.72
51178;BME280;37243;49.814;8.652;2022-11-27T00:16:28;101512.09;;;25.15;38.46
51178;BME280;37243;49.814;8.652;2022-11-27T00:18:57;101496.72;;;25.14;38.58
51178;BME280;37243;49.814;8.652;2022-11-27T00:21:27;101504.44;;;25.12;37.79
51178;BME280;37243;49.814;8.652;2022-11-27T00:24:01;101501.69;;;25.12;37.72
51178;BME280;37243;49.814;8.652;2022-11-27T00:26:30;101490.19;;;25.10;38.06
51178;BME280;37243;49.814;8.652;2022-11-27T00:28:59;101494.03;;;25.09;37.84
51178;BME280;37243;49.814;8.652;2022-11-27T00:31:29;101482.22;;;25.09;37.73
51178;BME280;37243;49.814;8.652;2022-11-27T00:33:59;101486.38;;;25.06;38.48
51178;BME280;37243;49.814;8.652;2022-11-27T00:36:32;101472.66;;;25.06;37.74
51178;BME280;37243;49.814;8.652;2022-11-27T00:39:03;101464.41;;;25.06;38.29
51178;BME280;37243;49.814;8.652;2022-11-27T00:41:32;101465.50;;;25.05;37.81
51178;BME280;37243;49.814;8.652;2022-11-27T00:44:00;101457.59;;;25.04;38.28
51178;BME280;37243;49.814;8.652;2022-11-27T00:46:32;101460.03;;;25.05;37.80
51178;BME280;37243;49.814;8.652;2022-11-27T00:49:03;101452.38;;;25.02;38.18
51178;BME280;37243;49.814;8.652;2022-11-27T00:51:32;101451.28;;;25.03;38.61
51178;BME280;37243;49.814;8.652;2022-11-27T00:54:03;101449.63;;;25.02;38.27
51178;BME280;37243;49.814;8.652;2022-11-27T00:56:33;101452.38;;;25.02;38.17
51178;BME280;37243;49.814;8.652;2022-11-27T00:59:02;101457.06;;;25.02;38.61
51178;BME280;37243;49.814;8.652;2022-11-27T01:01:33;101454.31;;;25.02;38.25
51178;BME280;37243;49.814;8.652;2022-11-27T01:04:03;101466.41;;;25.01;37.82
51178;BME280;37243;49.814;8.652;2022-11-27T01:06:32;101465.59;;;25.00;37.93
51178;BME280;37243;49.814;8.652;2022-11-27T01:09:03;101461.22;;;24.99;38.33
51178;BME280;37243;49.814;8.652;2022-11-27T01:11:33;101455.72;;;24.99;38.20
51178;BME280;37243;49.814;8.652;2022-11-27T01:14:04;101465.06;;;24.98;38.50
51178;BME280;37243;49.814;8.652;2022-11-27T01:16:33;101457.09;;;24.97;38.02
51178;BME280;37243;49.814;8.652;2022-11-27T01:19:02;101452.44;;;24.97;38.44
51178;BME280;37243;49.814;8.652;2022-11-27T01:21:32;101450.50;;;24.98;38.06
51178;BME280;37243;49.814;8.652;2022-11-27T01:24:04;101444.50;;;24.96;38.12
51178;BME280;37243;49.814;8.652;2022-11-27T01:26:33;101443.38;;;24.97;37.87
51178;BME280;37243;49.814;8.652;2022-11-27T01:29:01;101439.84;;;24.96;38.31
51178;BME280;37243;49.814;8.652;2022-11-27T01:31:31;101433.53;;;24.96;37.92
51178;BME280;37243;49.814;8.652;2022-11-27T01:34:02;101434.63;;;24.95;37.93
51178;BME280;37243;49.814;8.652;2022-11-27T01:36:32;101434.94;;;24.93;37.94
51178;BME280;37243;49.814;8.652;2022-11-27T01:39:04;101427.78;;;24.92;38.08
51178;BME280;37243;49.814;8.652;2022-11-27T01:41:33;101432.47;;;24.92;38.18
51178;BME280;37243;49.814;8.652;2022-11-27T01:47:04;101425.06;;;24.92;37.91
51178;BME280;37243;49.814;8.652;2022-11-27T01:49:36;101427.78;;;24.92;38.43
51178;BME280;37243;49.814;8.652;2022-11-27T01:52:07;101420.66;;;24.91;38.39
51178;BME280;37243;49.814;8.652;2022-11-27T01:54:44;101422.59;;;24.91;38.10
51178;BME280;37243;49.814;8.652;2022-11-27T01:57:17;101423.72;;;24.90;38.00
51178;BME280;37243;49.814;8.652;2022-11-27T01:59:47;101425.63;;;24.89;38.03
51178;BME280;37243;49.814;8.652;2022-11-27T02:02:17;101428.38;;;24.89;38.10
51178;BME280;37243;49.814;8.652;2022-11-27T02:04:45;101430.03;;;24.90;38.13
51178;BME280;37243;49.814;8.652;2022-11-27T02:07:13;101428.38;;;24.89;38.48
51178;BME280;37243;49.814;8.652;2022-11-27T02:09:44;101425.63;;;24.89;37.63
51178;BME280;37243;49.814;8.652;2022-11-27T02:12:19;101424.81;;;24.89;37.72
51178;BME280;37243;49.814;8.652;2022-11-27T02:14:56;101428.38;;;24.89;38.40
51178;BME280;37243;49.814;8.652;2022-11-27T02:17:35;101418.50;;;24.88;38.02
51178;BME280;37243;49.814;8.652;2022-11-27T02:20:21;101415.75;;;24.88;37.67
51178;BME280;37243;49.814;8.652;2022-11-27T02:26:07;101408.66;;;24.87;37.93
51178;BME280;37243;49.814;8.652;2022-11-27T02:28:59;101414.13;;;24.87;38.10
51178;BME280;37243;49.814;8.652;2022-11-27T02:31:35;101401.50;;;24.86;38.25
51178;BME280;37243;49.814;8.652;2022-11-27T02:34:13;101403.16;;;24.87;38.00
51178;BME280;37243;49.814;8.652;2022-11-27T02:36:49;101410.56;;;24.87;38.01
51178;BME280;37243;49.814;8.652;2022-11-27T02:39:23;101402.34;;;24.87;38.19
51178;BME280;37243;49.814;8.652;2022-11-27T02:41:58;101413.31;;;24.87;37.59
51178;BME280;37243;49.814;8.652;2022-11-27T02:44:32;101420.72;;;24.86;37.91
51178;BME280;37243;49.814;8.652;2022-11-27T02:47:03;101423.47;;;24.86;37.78
51178;BME280;37243;49.814;8.652;2022-11-27T02:49:33;101417.97;;;24.86;38.04
51178;BME280;37243;49.814;8.652;2022-11-27T02:52:03;101419.63;;;24.87;38.10
51178;BME280;37243;49.814;8.652;2022-11-27T02:54:33;101408.94;;;24.86;38.00
51178;BME280;37243;49.814;8.652;2022-11-27T02:57:03;101405.91;;;24.87;38.28
51178;BME280;37243;49.814;8.652;2022-11-27T02:59:35;101396.03;;;24.86;37.75
51178;BME280;37243;49.814;8.652;2022-11-27T03:02:08;101385.03;;;24.86;37.65
51178;BME280;37243;49.814;8.652;2022-11-27T03:04:42;101379.56;;;24.86;37.64
51178;BME280;37243;49.814;8.652;2022-11-27T03:07:15;101378.75;;;24.86;37.90
51178;BME280;37243;49.814;8.652;2022-11-27T03:09:47;101376.81;;;24.86;37.63
51178;BME280;37243;49.814;8.652;2022-11-27T03:12:17;101377.91;;;24.85;37.80
51178;BME280;37243;49.814;8.652;2022-11-27T03:14:48;101373.25;;;24.86;38.00
51178;BME280;37243;49.814;8.652;2022-11-27T03:17:25;101377.91;;;24.85;37.46
51178;BME280;37243;49.814;8.652;2022-11-27T03:20:03;101375.16;;;24.85;37.45
51178;BME280;37243;49.814;8.652;2022-11-27T03:22:35;101375.16;;;24.85;37.41
51178;BME280;37243;49.814;8.652;2022-11-27T03:25:03;101368.88;;;24.85;37.39
51178;BME280;37243;49.814;8.652;2022-11-27T03:27:36;101360.34;;;24.86;38.10
51178;BME280;37243;49.814;8.652;2022-11-27T03:30:10;101359.84;;;24.84;38.02
51178;BME280;37243;49.814;8.652;2022-11-27T03:32:39;101359.84;;;24.84;37.57
51178;BME280;37243;49.814;8.652;2022-11-27T03:35:08;101354.34;;;24.84;37.88
51178;BME280;37243;49.814;8.652;2022-11-27T03:37:38;101351.59;;;24.84;37.67
51178;BME280;37243;49.814;8.652;2022-11-27T03:40:07;101357.09;;;24.84;37.74
51178;BME280;37243;49.814;8.652;2022-11-27T03:42:45;101363.69;;;24.83;37.75
51178;BME280;37243;49.814;8.652;2022-11-27T03:45:28;101361.44;;;24.85;38.03
51178;BME280;37243;49.814;8.652;2022-11-27T03:48:07;101366.94;;;24.85;37.71
51178;BME280;37243;49.814;8.652;2022-11-27T03:50:48;101359.84;;;24.84;37.61
51178;BME280;37243;49.814;8.652;2022-11-27T03:53:22;101360.66;;;24.85;37.74
51178;BME280;37243;49.814;8.652;2022-11-27T03:55:58;101359.84;;;24.84;37.59
51178;BME280;37243;49.814;8.652;2022-11-27T03:58:32;101353.22;;;24.85;37.21
51178;BME280;37243;49.814;8.652;2022-11-27T04:01:07;101336.75;;;24.85;37.86
51178;BME280;37243;49.814;8.652;2022-11-27T04:03:37;101343.38;;;24.84;37.29
51178;BME280;37243;49.814;8.652;2022-11-27T04:06:05;101328.81;;;24.83;37.18
51178;BME280;37243;49.814;8.652;2022-11-27T04:08:34;101326.91;;;24.84;37.30
51178;BME280;37243;49.814;8.652;2022-11-27T04:11:02;101325.25;;;24.83;37.67
51178;BME280;37243;49.814;8.652;2022-11-27T04:13:30;101325.25;;;24.83;37.43
51178;BME280;37243;49.814;8.652;2022-11-27T04:15:59;101321.41;;;24.84;37.67
51178;BME280;37243;49.814;8.652;2022-11-27T04:18:30;101324.44;;;24.82;37.38
51178;BME280;37243;49.814;8.652;2022-11-27T04:20:59;101318.94;;;24.82;37.53
51178;BME280;37243;49.814;8.652;2022-11-27T04:23:28;101335.13;;;24.84;37.49
51178;BME280;37243;49.814;8.652;2022-11-27T04:25:56;101337.88;;;24.84;37.74
51178;BME280;37243;49.814;8.652;2022-11-27T04:28:24;101331.56;;;24.83;37.56
51178;BME280;37243;49.814;8.652;2022-11-27T04:30:53;101331.56;;;24.83;37.24
51178;BME280;37243;49.814;8.652;2022-11-27T04:33:21;101330.47;;;24.85;37.23
51178;BME280;37243;49.814;8.652;2022-11-27T04:35:52;101328.50;;;24.85;37.16
51178;BME280;37243;49.814;8.652;2022-11-27T04:38:21;101316.75;;;24.85;37.22
51178;BME280;37243;49.814;8.652;2022-11-27T04:40:50;101315.63;;;24.86;37.82
51178;BME280;37243;49.814;8.652;2022-11-27T04:43:19;101310.13;;;24.86;38.04
51178;BME280;37243;49.814;8.652;2022-11-27T04:45:47;101313.69;;;24.86;37.63
51178;BME280;37243;49.814;8.652;2022-11-27T04:48:16;101311.78;;;24.87;37.98
51178;BME280;37243;49.814;8.652;2022-11-27T04:50:44;101306.56;;;24.85;37.61
51178;BME280;37243;49.814;8.652;2022-11-27T04:53:15;101307.38;;;24.86;37.72
51178;BME280;37243;49.814;8.652;2022-11-27T04:55:43;101314.78;;;24.85;37.54
51178;BME280;37243;49.814;8.652;2022-11-27T04:58:11;101308.19;;;24.86;37.64
51178;BME280;37243;49.814;8.652;2022-11-27T05:00:40;101300.78;;;24.87;37.90
51178;BME280;37243;49.814;8.652;2022-11-27T05:03:08;101304.34;;;24.87;37.53
51178;BME280;37243;49.814;8.652;2022-11-27T05:05:36;101307.09;;;24.87;37.73
51178;BME280;37243;49.814;8.652;2022-11-27T05:08:04;101307.94;;;24.88;37.79
51178;BME280;37243;49.814;8.652;2022-11-27T05:10:35;101309.03;;;24.87;37.55
51178;BME280;37243;49.814;8.652;2022-11-27T05:13:03;101304.34;;;24.87;37.60
51178;BME280;37243;49.814;8.652;2022-11-27T05:15:32;101298.88;;;24.87;37.47
51178;BME280;37243;49.814;8.652;2022-11-27T05:18:00;101305.47;;;24.86;37.82
51178;BME280;37243;49.814;8.652;2022-11-27T05:20:28;101305.47;;;24.86;37.34
51178;BME280;37243;49.814;8.652;2022-11-27T05:22:56;101297.22;;;24.86;37.30
51178;BME280;37243;49.814;8.652;2022-11-27T05:25:25;101296.41;;;24.86;37.10
51178;BME280;37243;49.814;8.652;2022-11-27T05:27:55;101302.72;;;24.86;37.34
51178;BME280;37243;49.814;8.652;2022-11-27T05:30:24;101297.22;;;24.86;37.02
51178;BME280;37243;49.814;8.652;2022-11-27T05:32:52;101292.03;;;24.85;37.27
51178;BME280;37243;49.814;8.652;2022-11-27T05:35:20;101298.03;;;24.87;37.40
51178;BME280;37243;49.814;8.652;2022-11-27T05:37:49;101296.41;;;24.86;37.21
51178;BME280;37243;49.814;8.652;2022-11-27T05:40:17;101308.19;;;24.86;36.91
51178;BME280;37243;49.814;8.652;2022-11-27T05:42:45;101307.38;;;24.86;37.02
51178;BME280;37243;49.814;8.652;2022-11-27T05:45:16;101308.19;;;24.86;37.53
51178;BME280;37243;49.814;8.652;2022-11-27T05:47:44;101310.13;;;24.86;36.89
51178;BME280;37243;49.814;8.652;2022-11-27T05:50:13;101305.78;;;24.85;37.46
51178;BME280;37243;49.814;8.652;2022-11-27T05:52:41;101306.56;;;24.85;37.55
51178;BME280;37243;49.814;8.652;2022-11-27T05:55:09;101306.56;;;24.85;37.04
51178;BME280;37243;49.814;8.652;2022-11-27T05:57:37;101312.03;;;24.85;37.50
51178;BME280;37243;49.814;8.652;2022-11-27T06:00:07;101306.56;;;24.85;36.95
51178;BME280;37243;49.814;8.652;2022-11-27T06:02:38;101301.06;;;24.85;37.05
51178;BME280;37243;49.814;8.652;2022-11-27T06:05:07;101302.72;;;24.86;37.43
51178;BME280;37243;49.814;8.652;2022-11-27T06:07:36;101297.53;;;24.85;37.38
51178;BME280;37243;49.814;8.652;2022-11-27T06:10:05;101278.31;;;24.85;36.93
51178;BME280;37243;49.814;8.652;2022-11-27T06:12:33;101278.31;;;24.85;37.41
51178;BME280;37243;49.814;8.652;2022-11-27T06:15:02;101284.59;;;24.85;37.22
51178;BME280;37243;49.814;8.652;2022-11-27T06:17:31;101289.31;;;24.85;37.17
51178;BME280;37243;49.814;8.652;2022-11-27T06:20:02;101294.78;;;24.85;36.60
51178;BME280;37243;49.814;8.652;2022-11-27T06:22:31;101299.16;;;24.86;36.56
51178;BME280;37243;49.814;8.652;2022-11-27T06:24:59;101302.72;;;24.86;36.41
51178;BME280;37243;49.814;8.652;2022-11-27T06:27:31;101303.81;;;24.85;37.02
51178;BME280;37243;49.814;8.652;2022-11-27T06:29:59;101302.72;;;24.86;36.80
51178;BME280;37243;49.814;8.652;2022-11-27T06:32:28;101304.34;;;24.87;36.75
51178;BME280;37243;49.814;8.652;2022-11-27T06:34:57;101297.22;;;24.86;36.84
51178;BME280;37243;49.814;8.652;2022-11-27T06:37:28;101291.72;;;24.86;36.99
51178;BME280;37243;49.814;8.652;2022-11-27T06:39:57;101270.88;;;24.85;36.75
51178;BME280;37243;49.814;8.652;2022-11-27T06:42:27;101280.75;;;24.86;37.23
51178;BME280;37243;49.814;8.652;2022-11-27T06:44:55;101284.59;;;24.85;37.22
51178;BME280;37243;49.814;8.652;2022-11-27T06:47:24;101281.84;;;24.85;36.73
51178;BME280;37243;49.814;8.652;2022-11-27T06:49:52;101266.53;;;24.84;36.56
51178;BME280;37243;49.814;8.652;2022-11-27T06:52:20;101260.22;;;24.83;36.94
51178;BME280;37243;49.814;8.652;2022-11-27T06:54:51;101252.81;;;24.84;36.99
51178;BME280;37243;49.814;8.652;2022-11-27T06:57:19;101248.94;;;24.85;37.36
51178;BME280;37243;49.814;8.652;2022-11-27T06:59:47;101256.38;;;24.85;36.63
51178;BME280;37243;49.814;8.652;2022-11-27T07:02:16;101257.97;;;24.86;37.01
51178;BME280;37243;49.814;8.652;2022-11-27T07:04:44;101257.16;;;24.85;37.20
51178;BME280;37243;49.814;8.652;2022-11-27T07:07:12;101252.50;;;24.86;37.24
51178;BME280;37243;49.814;8.652;2022-11-27T07:09:41;101250.56;;;24.86;37.12
51178;BME280;37243;49.814;8.652;2022-11-27T07:12:11;101252.50;;;24.86;37.01
51178;BME280;37243;49.814;8.652;2022-11-27T07:14:40;101247.00;;;24.86;37.00
51178;BME280;37243;49.814;8.652;2022-11-27T07:17:08;101245.09;;;24.86;37.29
51178;BME280;37243;49.814;8.652;2022-11-27T07:19:37;101242.34;;;24.86;37.01
51178;BME280;37243;49.814;8.652;2022-11-27T07:22:05;101253.31;;;24.86;37.26
51178;BME280;37243;49.814;8.652;2022-11-27T07:24:33;101249.47;;;24.87;36.83
51178;BME280;37243;49.814;8.652;2022-11-27T07:27:02;101231.34;;;24.86;37.30
51178;BME280;37243;49.814;8.652;2022-11-27T07:29:33;101227.50;;;24.87;37.57
51178;BME280;37243;49.814;8.652;2022-11-27T07:32:01;101222.84;;;24.88;37.57
51178;BME280;37243;49.814;8.652;2022-11-27T07:34:29;101219.28;;;24.87;37.58
51178;BME280;37243;49.814;8.652;2022-11-27T07:36:57;101226.69;;;24.87;37.60
51178;BME280;37243;49.814;8.652;2022-11-27T07:39:26;101237.66;;;24.87;37.40
51178;BME280;37243;49.814;8.652;2022-11-27T07:41:54;101241.22;;;24.87;37.50
51178;BME280;37243;49.814;8.652;2022-11-27T07:44:22;101238.50;;;24.87;37.28
51178;BME280;37243;49.814;8.652;2022-11-27T07:46:53;101240.09;;;24.88;37.28
51178;BME280;37243;49.814;8.652;2022-11-27T07:49:21;101234.63;;;24.88;37.62
51178;BME280;37243;49.814;8.652;2022-11-27T07:51:50;101241.75;;;24.89;37.23
51178;BME280;37243;49.814;8.652;2022-11-27T07:54:18;101231.88;;;24.88;36.90
51178;BME280;37243;49.814;8.652;2022-11-27T07:56:46;101227.19;;;24.89;37.43
51178;BME280;37243;49.814;8.652;2022-11-27T07:59:14;101240.09;;;24.88;37.47
51178;BME280;37243;49.814;8.652;2022-11-27T08:01:43;101247.22;;;24.89;37.07
51178;BME280;37243;49.814;8.652;2022-11-27T08:04:15;101255.78;;;24.88;37.63
51178;BME280;37243;49.814;8.652;2022-11-27T08:06:44;101258.22;;;24.89;37.07
51178;BME280;37243;49.814;8.652;2022-11-27T08:09:12;101259.03;;;24.90;37.22
51178;BME280;37243;49.814;8.652;2022-11-27T08:11:40;101246.13;;;24.90;36.90
51178;BME280;37243;49.814;8.652;2022-11-27T08:14:09;101229.66;;;24.90;36.89
51178;BME280;37243;49.814;8.652;2022-11-27T08:16:40;101215.94;;;24.90;37.78
51178;BME280;37243;49.814;8.652;2022-11-27T08:19:10;101197.84;;;24.89;37.78
51178;BME280;37243;49.814;8.652;2022-11-27T08:21:41;101192.03;;;24.91;37.78
51178;BME280;37243;49.814;8.652;2022-11-27T08:24:09;101194.78;;;24.91;37.61
51178;BME280;37243;49.814;8.652;2022-11-27T08:26:38;101201.09;;;24.91;37.74
51178;BME280;37243;49.814;8.652;2022-11-27T08:29:06;101203.84;;;24.91;37.58
51178;BME280;37243;49.814;8.652;2022-11-27T08:31:34;101190.09;;;24.91;37.66
51178;BME280;37243;49.814;8.652;2022-11-27T08:34:03;101179.13;;;24.91;37.84
51178;BME280;37243;49.814;8.652;2022-11-27T08:36:31;101185.44;;;24.92;37.57
51178;BME280;37243;49.814;8.652;2022-11-27T08:39:02;101195.00;;;24.94;37.53
51178;BME280;37243;49.814;8.652;2022-11-27T08:41:30;101182.41;;;24.93;37.06
51178;BME280;37243;49.814;8.652;2022-11-27T08:43:59;101179.94;;;24.92;37.15
51178;BME280;37243;49.814;8.652;2022-11-27T08:46:27;101180.78;;;24.92;37.79
51178;BME280;37243;49.814;8.652;2022-11-27T08:48:55;101179.66;;;24.93;37.78
51178;BME280;37243;49.814;8.652;2022-11-27T08:51:25;101173.88;;;24.95;37.69
51178;BME280;37243;49.814;8.652;2022-11-27T08:53:54;101179.66;;;24.93;36.97
51178;BME280;37243;49.814;8.652;2022-11-27T08:56:25;101190.66;;;24.93;36.99
51178;BME280;37243;49.814;8.652;2022-11-27T08:58:53;101207.13;;;24.93;37.18
51178;BME280;37243;49.814;8.652;2022-11-27T09:01:23;101209.03;;;24.93;37.18
51178;BME280;37243;49.814;8.652;2022-11-27T09:03:52;101209.84;;;24.93;37.47
51178;BME280;37243;49.814;8.652;2022-11-27T09:06:23;101205.97;;;24.94;37.30
51178;BME280;37243;49.814;8.652;2022-11-27T09:08:54;101205.97;;;24.94;37.55
51178;BME280;37243;49.814;8.652;2022-11-27T09:11:26;101194.19;;;24.94;37.00
51178;BME280;37243;49.814;8.652;2022-11-27T09:13:56;101172.22;;;24.94;37.71
51178;BME280;37243;49.814;8.652;2022-11-27T09:16:25;101169.47;;;24.94;37.07
51178;BME280;37243;49.814;8.652;2022-11-27T09:18:54;101168.69;;;24.93;37.05
51178;BME280;37243;49.814;8.652;2022-11-27T09:21:25;101154.97;;;24.93;37.30
51178;BME280;37243;49.814;8.652;2022-11-27T09:23:55;101155.75;;;24.94;37.12
51178;BME280;37243;49.814;8.652;2022-11-27T09:26:27;101148.34;;;24.94;36.98
51178;BME280;37243;49.814;8.652;2022-11-27T09:28:57;101151.09;;;24.94;37.48
51178;BME280;37243;49.814;8.652;2022-11-27T09:31:25;101151.09;;;24.94;36.89
51178;BME280;37243;49.814;8.652;2022-11-27T09:33:54;101153.84;;;24.94;37.02
51178;BME280;37243;49.814;8.652;2022-11-27T09:36:24;101156.06;;;24.92;37.34
51178;BME280;37243;49.814;8.652;2022-11-27T09:38:52;101159.31;;;24.94;37.18
51178;BME280;37243;49.814;8.652;2022-11-27T09:41:33;101160.47;;;24.93;37.75
51178;BME280;37243;49.814;8.652;2022-11-27T09:44:12;101166.72;;;24.94;37.60
51178;BME280;37243;49.814;8.652;2022-11-27T09:46:43;101165.63;;;24.95;37.12
51178;BME280;37243;49.814;8.652;2022-11-27T09:49:17;101164.81;;;24.94;37.30
51178;BME280;37243;49.814;8.652;2022-11-27T09:51:50;101161.25;;;24.94;37.68
51178;BME280;37243;49.814;8.652;2022-11-27T09:54:23;101169.47;;;24.94;37.29
51178;BME280;37243;49.814;8.652;2022-11-27T09:56:56;101162.06;;;24.94;37.72
51178;BME280;37243;49.814;8.652;2022-11-27T09:59:30;101151.09;;;24.94;37.84
51178;BME280;37243;49.814;8.652;2022-11-27T10:02:00;101140.09;;;24.94;37.65
51178;BME280;37243;49.814;8.652;2022-11-27T10:04:29;101137.38;;;24.94;37.68
51178;BME280;37243;49.814;8.652;2022-11-27T10:07:11;101132.41;;;24.96;38.03
51178;BME280;37243;49.814;8.652;2022-11-27T10:09:56;101118.16;;;24.94;37.80
51178;BME280;37243;49.814;8.652;2022-11-27T10:12:38;101100.88;;;24.94;37.97
51178;BME280;37243;49.814;8.652;2022-11-27T10:15:14;101093.97;;;24.96;38.17
51178;BME280;37243;49.814;8.652;2022-11-27T10:17:49;101105.25;;;24.95;37.53
51178;BME280;37243;49.814;8.652;2022-11-27T10:20:26;101106.06;;;24.95;38.27
51178;BME280;37243;49.814;8.652;2022-11-27T10:23:02;101098.66;;;24.96;37.56
51178;BME280;37243;49.814;8.652;2022-11-27T10:25:37;101095.91;;;24.96;37.94
51178;BME280;37243;49.814;8.652;2022-11-27T10:28:29;101084.09;;;24.95;38.02
51178;BME280;37243;49.814;8.652;2022-11-27T10:31:09;101080.25;;;24.96;38.03
51178;BME280;37243;49.814;8.652;2022-11-27T10:33:42;101080.25;;;24.96;38.01
51178;BME280;37243;49.814;8.652;2022-11-27T10:36:14;101072.03;;;24.96;37.91
51178;BME280;37243;49.814;8.652;2022-11-27T10:38:45;101066.53;;;24.96;38.10
51178;BME280;37243;49.814;8.652;2022-11-27T10:41:17;101057.16;;;24.97;38.49
51178;BME280;37243;49.814;8.652;2022-11-27T10:43:53;101056.34;;;24.97;38.46
51178;BME280;37243;49.814;8.652;2022-11-27T10:46:25;101057.16;;;24.97;38.55
51178;BME280;37243;49.814;8.652;2022-11-27T10:48:55;101058.31;;;24.96;38.25
51178;BME280;37243;49.814;8.652;2022-11-27T10:51:29;101051.69;;;24.97;38.02
51178;BME280;37243;49.814;8.652;2022-11-27T10:53:59;101040.69;;;24.97;37.90
51178;BME280;37243;49.814;8.652;2022-11-27T10:56:39;101039.09;;;24.96;38.31
51178;BME280;37243;49.814;8.652;2022-11-27T10:59:15;101041.84;;;24.96;38.24
51178;BME280;37243;49.814;8.652;2022-11-27T11:01:47;101035.22;;;24.97;38.52
51178;BME280;37243;49.814;8.652;2022-11-27T11:04:20;101038.28;;;24.96;37.98
51178;BME280;37243;49.814;8.652;2022-11-27T11:06:49;101039.88;;;24.97;38.45
51178;BME280;37243;49.814;8.652;2022-11-27T11:09:21;101035.22;;;24.97;37.81
51178;BME280;37243;49.814;8.652;2022-11-27T11:11:50;101026.16;;;24.97;38.48
51178;BME280;37243;49.814;8.652;2022-11-27T11:14:22;101023.94;;;24.99;38.39
51178;BME280;37243;49.814;8.652;2022-11-27T11:16:52;101009.41;;;24.98;38.55
51178;BME280;37243;49.814;8.652;2022-11-27T11:19:28;100997.59;;;24.98;38.12
51178;BME280;37243;49.814;8.652;2022-11-27T11:21:57;100981.13;;;24.98;38.15
51178;BME280;37243;49.814;8.652;2022-11-27T11:24:28;100979.50;;;24.97;38.61
51178;BME280;37243;49.814;8.652;2022-11-27T11:26:58;100980.31;;;24.97;38.31
51178;BME280;37243;49.814;8.652;2022-11-27T11:29:32;100967.72;;;24.96;38.37
51178;BME280;37243;49.814;8.652;2022-11-27T11:32:05;100970.16;;;24.98;38.02
51178;BME280;37243;49.814;8.652;2022-11-27T11:34:40;100970.16;;;24.98;38.20
51178;BME280;37243;49.814;8.652;2022-11-27T11:37:20;100970.47;;;24.96;38.48
51178;BME280;37243;49.814;8.652;2022-11-27T11:39:54;100967.13;;;24.99;38.69
51178;BME280;37243;49.814;8.652;2022-11-27T11:42:25;100950.66;;;24.99;37.86
51178;BME280;37243;49.814;8.652;2022-11-27T11:45:03;100943.53;;;24.98;38.64
51178;BME280;37243;49.814;8.652;2022-11-27T11:47:32;100943.53;;;24.98;38.65
51178;BME280;37243;49.814;8.652;2022-11-27T11:50:01;100949.00;;;24.98;37.99
51178;BME280;37243;49.814;8.652;2022-11-27T11:52:40;100939.69;;;24.99;38.41
51178;BME280;37243;49.814;8.652;2022-11-27T11:55:16;100934.19;;;24.99;38.41
51178;BME280;37243;49.814;8.652;2022-11-27T11:57:55;100934.97;;;25.00;37.91
51178;BME280;37243;49.814;8.652;2022-11-27T12:00:37;100929.47;;;25.00;38.27
51178;BME280;37243;49.814;8.652;2022-11-27T12:03:37;100928.38;;;25.01;38.48
51178;BME280;37243;49.814;8.652;2022-11-27T12:06:24;100920.13;;;25.01;38.00
51178;BME280;37243;49.814;8.652;2022-11-27T12:09:07;100924.81;;;25.00;38.10
51178;BME280;37243;49.814;8.652;2022-11-27T12:11:42;100920.97;;;25.01;38.44
51178;BME280;37243;49.814;8.652;2022-11-27T12:14:22;100918.22;;;25.01;38.83
51178;BME280;37243;49.814;8.652;2022-11-27T12:17:05;100936.28;;;25.02;38.71
51178;BME280;37243;49.814;8.652;2022-11-27T12:19:54;100933.53;;;25.02;38.19
51178;BME280;37243;49.814;8.652;2022-11-27T12:22:43;100924.19;;;25.03;38.27
51178;BME280;37243;49.814;8.652;2022-11-27T12:25:24;100911.59;;;25.02;38.19
51178;BME280;37243;49.814;8.652;2022-11-27T12:28:08;100908.06;;;25.02;38.66
51178;BME280;37243;49.814;8.652;2022-11-27T12:30:44;100908.56;;;25.04;38.52
51178;BME280;37243;49.814;8.652;2022-11-27T12:33:47;100906.91;;;25.03;38.77
51178;BME280;37243;49.814;8.652;2022-11-27T12:36:25;100884.13;;;25.02;38.86
51178;BME280;37243;49.814;8.652;2022-11-27T12:39:08;100877.84;;;25.02;38.73
51178;BME280;37243;49.814;8.652;2022-11-27T12:42:07;100886.88;;;25.02;38.61
51178;BME280;37243;49.814;8.652;2022-11-27T12:44:47;100893.19;;;25.03;38.65
51178;BME280;37243;49.814;8.652;2022-11-27T12:47:21;100896.75;;;25.03;38.76
51178;BME280;37243;49.814;8.652;2022-11-27T12:49:56;100892.09;;;25.04;38.88
51178;BME280;37243;49.814;8.652;2022-11-27T12:52:31;100890.66;;;25.06;38.35
51178;BME280;37243;49.814;8.652;2022-11-27T12:55:05;100890.16;;;25.04;38.10
51178;BME280;37243;49.814;8.652;2022-11-27T12:57:39;100876.44;;;25.04;38.19
51178;BME280;37243;49.814;8.652;2022-11-27T13:00:14;100859.97;;;25.04;38.48
51178;BME280;37243;49.814;8.652;2022-11-27T13:02:48;100865.44;;;25.04;38.74
51178;BME280;37243;49.814;8.652;2022-11-27T13:05:25;100865.44;;;25.04;38.08
51178;BME280;37243;49.814;8.652;2022-11-27T13:07:58;100862.69;;;25.04;38.68
51178;BME280;37243;49.814;8.652;2022-11-27T13:10:33;100857.22;;;25.04;38.80
51178;BME280;37243;49.814;8.652;2022-11-27T13:13:05;100849.81;;;25.05;38.29
51178;BME280;37243;49.814;8.652;2022-11-27T13:15:40;100856.91;;;25.06;38.50
51178;BME280;37243;49.814;8.652;2022-11-27T13:18:17;100855.28;;;25.05;38.40
51178;BME280;37243;49.814;8.652;2022-11-27T13:20:50;100861.56;;;25.05;38.77